createdAt,value
2018-12-01T00:02:26.728Z,19.63
2018-12-01T00:07:44.161Z,19.53
2018-12-01T00:12:46.564Z,18.80
2018-12-01T00:17:48.947Z,18.63
2018-12-01T00:22:51.312Z,18.73
2018-12-01T00:27:53.644Z,19.50
2018-12-01T00:32:56.421Z,18.47
2018-12-01T00:37:58.908Z,18.60
2018-12-01T00:43:01.260Z,17.90
2018-12-01T00:48:03.609Z,18.17
2018-12-01T00:53:06.106Z,18.43
2018-12-01T00:58:08.484Z,17.70
2018-12-01T01:03:10.788Z,18.30
2018-12-01T01:08:13.296Z,18.33
2018-12-01T01:13:15.711Z,18.20
2018-12-01T01:18:18.031Z,17.87
2018-12-01T01:23:20.404Z,17.40
2018-12-01T01:28:22.700Z,17.80
2018-12-01T01:33:28.451Z,17.13
2018-12-01T01:38:30.979Z,16.80
2018-12-01T01:49:00.420Z,17.57
2018-12-01T01:54:02.874Z,17.67
2018-12-01T01:59:05.227Z,17.03
2018-12-01T02:04:07.564Z,17.87
2018-12-01T02:09:09.972Z,17.13
2018-12-01T02:14:12.291Z,16.80
2018-12-01T02:19:14.634Z,16.73
2018-12-01T02:24:17.249Z,17.80
2018-12-01T02:29:19.609Z,17.20
2018-12-01T02:34:21.943Z,16.37
2018-12-01T02:39:24.429Z,16.43
2018-12-01T02:45:36.081Z,16.53
2018-12-01T02:50:38.389Z,17.83
2018-12-01T02:55:40.763Z,17.67
2018-12-01T03:00:43.117Z,16.90
2018-12-01T03:05:45.413Z,17.70
2018-12-01T03:10:47.749Z,18.27
2018-12-01T03:15:50.058Z,16.77
2018-12-01T03:20:52.363Z,17.40
2018-12-01T03:25:55.000Z,17.33
2018-12-01T03:30:57.381Z,18.30
2018-12-01T03:35:59.742Z,16.97
2018-12-01T03:41:02.178Z,15.37
2018-12-01T03:46:04.900Z,16.47
2018-12-01T03:51:07.512Z,16.47
2018-12-01T03:56:09.897Z,16.10
2018-12-01T04:01:12.265Z,14.90
2018-12-01T04:06:14.563Z,16.27
2018-12-01T04:11:16.929Z,16.47
2018-12-01T04:16:19.247Z,16.00
2018-12-01T04:21:21.548Z,16.37
2018-12-01T04:26:24.099Z,16.87
2018-12-01T04:31:26.465Z,16.00
2018-12-01T04:36:29.864Z,16.37
2018-12-01T04:41:32.409Z,16.07
2018-12-01T04:46:34.800Z,16.17
2018-12-01T04:51:37.191Z,16.23
2018-12-01T04:56:39.686Z,16.33
2018-12-01T05:01:42.322Z,16.13
2018-12-01T05:06:44.761Z,16.17
2018-12-01T05:11:47.235Z,17.53
2018-12-01T05:16:49.960Z,16.60
2018-12-01T05:21:52.352Z,17.40
2018-12-01T05:26:54.701Z,17.03
2018-12-01T05:31:57.105Z,16.90
2018-12-01T05:36:59.527Z,17.93
2018-12-01T05:42:02.644Z,17.40
2018-12-01T05:47:05.476Z,18.43
2018-12-01T05:52:07.972Z,16.97
2018-12-01T05:57:10.374Z,17.47
2018-12-01T06:02:12.714Z,16.47
2018-12-01T06:07:15.060Z,16.37
2018-12-01T06:12:17.492Z,16.30
2018-12-01T06:17:19.987Z,17.73
2018-12-01T06:22:22.352Z,16.10
2018-12-01T06:27:24.711Z,16.57
2018-12-01T06:32:27.065Z,15.43
2018-12-01T06:37:30.532Z,15.57
2018-12-01T06:42:32.931Z,15.77
2018-12-01T06:47:35.283Z,14.63
2018-12-01T06:52:37.729Z,14.80
2018-12-01T06:57:40.289Z,14.60
2018-12-01T07:02:43.185Z,13.50
2018-12-01T07:07:45.591Z,13.63
2018-12-01T07:12:58.204Z,13.53
2018-12-01T07:18:00.619Z,13.60
2018-12-01T07:23:02.980Z,12.67
2018-12-01T07:28:05.362Z,12.97
2018-12-01T07:33:07.704Z,13.10
2018-12-01T07:38:10.064Z,12.80
2018-12-01T07:43:12.493Z,13.93
2018-12-01T07:48:14.829Z,15.40
2018-12-01T07:53:17.534Z,12.93
2018-12-01T07:58:19.707Z,13.33
2018-12-01T08:03:22.823Z,13.23
2018-12-01T08:08:25.322Z,12.77
2018-12-01T08:13:27.808Z,14.60
2018-12-01T08:18:30.166Z,13.20
2018-12-01T08:23:32.507Z,12.70
2018-12-01T08:28:35.877Z,13.87
2018-12-01T08:33:38.221Z,13.17
2018-12-01T08:38:40.675Z,13.67
2018-12-01T08:43:43.051Z,11.80
2018-12-01T08:48:45.436Z,11.03
2018-12-01T08:53:47.806Z,10.90
2018-12-01T08:58:53.128Z,12.07
2018-12-01T09:03:55.568Z,10.40
2018-12-01T09:08:57.975Z,9.87
2018-12-01T09:14:00.334Z,10.47
2018-12-01T09:19:03.155Z,9.17
2018-12-01T09:24:06.147Z,9.90
2018-12-01T09:29:08.492Z,10.03
2018-12-01T09:34:10.819Z,9.30
2018-12-01T09:39:13.148Z,9.03
2018-12-01T09:44:17.329Z,9.00
2018-12-01T09:49:18.603Z,9.90
2018-12-01T09:54:20.980Z,10.13
2018-12-01T09:59:23.351Z,10.00
2018-12-01T10:04:25.687Z,9.37
2018-12-01T10:09:28.183Z,9.70
2018-12-01T10:14:30.584Z,9.23
2018-12-01T10:19:32.931Z,9.13
2018-12-01T10:24:35.316Z,9.03
2018-12-01T10:29:37.702Z,8.47
2018-12-01T10:34:40.055Z,8.30
2018-12-01T10:39:42.399Z,7.37
2018-12-01T10:44:44.816Z,7.57
2018-12-01T10:49:47.193Z,7.07
2018-12-01T10:54:49.579Z,7.40
2018-12-01T10:59:51.903Z,7.20
2018-12-01T11:04:54.228Z,6.83
2018-12-01T11:09:56.647Z,6.57
2018-12-01T11:14:59.055Z,7.03
2018-12-01T11:20:01.451Z,6.20
2018-12-01T11:25:06.276Z,6.50
2018-12-01T11:30:13.047Z,6.43
2018-12-01T11:35:15.502Z,6.77
2018-12-01T11:40:18.676Z,6.60
2018-12-01T11:45:21.099Z,5.58
2018-12-01T11:50:23.580Z,5.90
2018-12-01T11:55:25.943Z,5.60
2018-12-01T12:00:28.295Z,5.37
2018-12-01T12:05:30.674Z,5.70
2018-12-01T12:10:33.008Z,5.43
2018-12-01T12:15:35.443Z,4.60
2018-12-01T12:20:38.093Z,5.03
2018-12-01T12:25:40.527Z,5.33
2018-12-01T12:30:42.937Z,4.00
2018-12-01T12:35:45.877Z,4.03
2018-12-01T12:40:48.202Z,4.77
2018-12-01T12:45:50.571Z,6.47
2018-12-01T12:50:53.312Z,5.10
2018-12-01T12:55:55.376Z,5.87
2018-12-01T13:00:57.699Z,4.87
2018-12-01T13:06:00.040Z,5.78
2018-12-01T13:11:02.404Z,6.27
2018-12-01T13:16:05.035Z,6.22
2018-12-01T13:21:07.454Z,5.83
2018-12-01T13:26:09.928Z,5.23
2018-12-01T13:31:12.270Z,4.87
2018-12-01T13:36:14.671Z,5.10
2018-12-01T13:41:18.037Z,5.77
2018-12-01T13:46:22.047Z,5.93
2018-12-01T13:51:24.431Z,6.10
2018-12-01T13:56:26.799Z,5.60
2018-12-01T14:01:29.151Z,4.75
2018-12-01T14:06:31.515Z,4.63
2018-12-01T14:11:34.024Z,4.00
2018-12-01T14:16:36.453Z,4.70
2018-12-01T14:21:38.828Z,5.23
2018-12-01T14:26:41.187Z,6.33
2018-12-01T14:31:44.139Z,6.33
2018-12-01T14:36:46.532Z,6.47
2018-12-01T14:41:48.883Z,7.00
2018-12-01T14:46:54.160Z,6.50
2018-12-01T14:51:56.624Z,6.30
2018-12-01T14:56:59.677Z,7.87
2018-12-01T15:02:02.060Z,7.67
2018-12-01T15:07:04.792Z,7.90
2018-12-01T15:12:07.117Z,7.87
2018-12-01T15:17:09.495Z,9.40
2018-12-01T15:22:11.829Z,8.10
2018-12-01T15:27:14.156Z,8.03
2018-12-01T15:32:16.603Z,6.93
2018-12-01T15:37:19.011Z,7.50
2018-12-01T15:42:22.631Z,7.37
2018-12-01T15:47:25.077Z,7.67
2018-12-01T15:52:27.529Z,8.50
2018-12-01T15:57:29.955Z,8.73
2018-12-01T16:02:32.372Z,10.50
2018-12-01T16:07:34.829Z,10.83
2018-12-01T16:12:37.175Z,9.80
2018-12-01T16:17:39.615Z,11.20
2018-12-01T16:22:41.991Z,9.50
2018-12-01T16:27:45.104Z,9.47
2018-12-01T16:32:48.818Z,9.20
2018-12-01T16:37:51.964Z,7.83
2018-12-01T16:42:55.268Z,8.33
2018-12-01T16:47:57.696Z,7.87
2018-12-01T16:53:00.659Z,9.10
2018-12-01T16:58:03.071Z,9.17
2018-12-01T17:03:05.999Z,10.07
2018-12-01T17:08:08.376Z,9.53
2018-12-01T17:13:10.769Z,10.10
2018-12-01T17:18:13.414Z,10.10
2018-12-01T17:23:16.492Z,10.53
2018-12-01T17:28:20.079Z,10.40
2018-12-01T17:33:28.171Z,10.93
2018-12-01T17:38:30.593Z,10.43
2018-12-01T17:43:37.276Z,10.37
2018-12-01T17:48:40.797Z,10.40
2018-12-01T17:53:45.679Z,9.57
2018-12-01T17:58:48.759Z,9.37
2018-12-01T18:03:52.194Z,10.07
2018-12-01T18:08:54.592Z,9.70
2018-12-01T18:13:56.973Z,11.00
2018-12-01T18:18:59.398Z,11.83
2018-12-01T18:24:01.752Z,10.57
2018-12-01T18:29:05.651Z,12.87
2018-12-01T18:34:11.559Z,12.97
2018-12-01T18:39:18.380Z,12.03
2018-12-01T18:44:20.783Z,13.93
2018-12-01T18:49:23.194Z,13.37
2018-12-01T18:54:25.616Z,11.57
2018-12-01T18:59:27.971Z,12.57
2018-12-01T19:04:30.284Z,13.33
2018-12-01T19:09:32.623Z,12.03
2018-12-01T19:14:35.033Z,12.87
2018-12-01T19:19:38.487Z,13.20
2018-12-01T19:24:40.828Z,13.87
2018-12-01T19:29:43.151Z,13.70
2018-12-01T19:34:45.597Z,13.50
2018-12-01T19:39:48.004Z,13.37
2018-12-01T19:44:50.450Z,13.27
2018-12-01T19:49:52.849Z,13.93
2018-12-01T19:54:55.255Z,15.00
2018-12-01T19:59:57.648Z,13.57
2018-12-01T20:05:00.006Z,13.90
2018-12-01T20:10:02.627Z,13.93
2018-12-01T20:15:15.819Z,13.67
2018-12-01T20:20:18.269Z,14.20
2018-12-01T20:25:20.827Z,14.03
2018-12-01T20:30:23.174Z,13.47
2018-12-01T20:35:35.466Z,12.60
2018-12-01T20:40:37.795Z,12.53
2018-12-01T20:45:40.306Z,12.37
2018-12-01T20:50:42.829Z,11.73
2018-12-01T20:55:47.935Z,12.50
2018-12-01T21:00:50.308Z,12.53
2018-12-01T21:05:52.678Z,12.30
2018-12-01T21:10:56.939Z,12.97
2018-12-01T21:15:59.390Z,12.87
2018-12-01T21:21:08.534Z,12.97
2018-12-01T21:26:10.959Z,13.00
2018-12-01T21:31:13.320Z,12.27
2018-12-01T21:36:15.694Z,12.03
2018-12-01T21:41:18.068Z,11.07
2018-12-01T21:46:20.439Z,11.10
2018-12-01T21:51:22.883Z,11.53
2018-12-01T21:56:25.342Z,11.27
2018-12-01T22:01:28.482Z,11.77
2018-12-01T22:06:31.023Z,13.23
2018-12-01T22:11:33.387Z,11.33
2018-12-01T22:16:35.819Z,11.87
2018-12-01T22:21:38.295Z,12.13
2018-12-01T22:26:40.643Z,10.90
2018-12-01T22:31:42.991Z,11.37
2018-12-01T22:36:45.338Z,10.77
2018-12-01T22:41:47.760Z,11.63
2018-12-01T22:46:50.161Z,12.23
2018-12-01T22:51:52.620Z,12.17
2018-12-01T22:56:55.014Z,12.60
2018-12-01T23:01:57.454Z,12.93
2018-12-01T23:07:00.112Z,12.60
2018-12-01T23:12:02.487Z,12.53
2018-12-01T23:17:05.104Z,12.43
2018-12-01T23:22:07.519Z,12.90
2018-12-01T23:27:09.879Z,12.97
2018-12-01T23:32:12.248Z,12.73
2018-12-01T23:37:14.640Z,13.57
2018-12-01T23:42:17.025Z,13.23
2018-12-01T23:47:19.381Z,12.33
2018-12-01T23:52:21.845Z,11.90
2018-12-01T23:57:24.991Z,11.83
